sensor_id;sensor_type;location;lat;lon;timestamp;P1;durP1;ratioP1;P2;durP2;ratioP2
74383;SDS011;62824;52.994;-3.936;2023-01-08T00:01:23;14.52;;;2.65;;
74383;SDS011;62824;52.994;-3.936;2023-01-08T00:03:49;13.30;;;2.30;;
74383;SDS011;62824;52.994;-3.936;2023-01-08T00:06:15;10.25;;;2.35;;
74383;SDS011;62824;52.994;-3.936;2023-01-08T00:08:43;10.40;;;2.15;;
74383;SDS011;62824;52.994;-3.936;2023-01-08T00:11:09;15.25;;;2.75;;
74383;SDS011;62824;52.994;-3.936;2023-01-08T00:13:35;8.82;;;2.38;;
74383;SDS011;62824;52.994;-3.936;2023-01-08T00:16:02;11.43;;;1.92;;
74383;SDS011;62824;52.994;-3.936;2023-01-08T00:18:29;12.15;;;2.10;;
74383;SDS011;62824;52.994;-3.936;2023-01-08T00:20:56;13.25;;;2.08;;
74383;SDS011;62824;52.994;-3.936;2023-01-08T00:23:22;13.57;;;2.10;;
74383;SDS011;62824;52.994;-3.936;2023-01-08T00:25:48;12.02;;;2.15;;
74383;SDS011;62824;52.994;-3.936;2023-01-08T00:28:14;13.52;;;2.97;;
74383;SDS011;62824;52.994;-3.936;2023-01-08T00:30:41;9.27;;;1.80;;
74383;SDS011;62824;52.994;-3.936;2023-01-08T00:33:06;10.45;;;1.67;;
74383;SDS011;62824;52.994;-3.936;2023-01-08T00:35:32;7.75;;;1.52;;
74383;SDS011;62824;52.994;-3.936;2023-01-08T00:37:58;7.90;;;1.98;;
74383;SDS011;62824;52.994;-3.936;2023-01-08T00:40:24;5.05;;;1.40;;
74383;SDS011;62824;52.994;-3.936;2023-01-08T00:42:49;2.78;;;1.00;;
74383;SDS011;62824;52.994;-3.936;2023-01-08T00:45:15;11.77;;;2.05;;
74383;SDS011;62824;52.994;-3.936;2023-01-08T00:47:41;9.23;;;1.55;;
74383;SDS011;62824;52.994;-3.936;2023-01-08T00:50:07;6.97;;;1.20;;
74383;SDS011;62824;52.994;-3.936;2023-01-08T00:52:33;8.07;;;1.30;;
74383;SDS011;62824;52.994;-3.936;2023-01-08T00:54:59;9.57;;;1.38;;
74383;SDS011;62824;52.994;-3.936;2023-01-08T00:57:24;7.07;;;1.75;;
74383;SDS011;62824;52.994;-3.936;2023-01-08T00:59:50;8.73;;;1.52;;
74383;SDS011;62824;52.994;-3.936;2023-01-08T01:02:22;11.70;;;2.08;;
74383;SDS011;62824;52.994;-3.936;2023-01-08T01:04:48;5.40;;;1.33;;
74383;SDS011;62824;52.994;-3.936;2023-01-08T01:07:14;7.80;;;2.13;;
74383;SDS011;62824;52.994;-3.936;2023-01-08T01:09:39;10.45;;;1.92;;
74383;SDS011;62824;52.994;-3.936;2023-01-08T01:12:05;14.45;;;1.90;;
74383;SDS011;62824;52.994;-3.936;2023-01-08T01:15:14;9.60;;;1.70;;
74383;SDS011;62824;52.994;-3.936;2023-01-08T01:17:37;13.38;;;2.58;;
74383;SDS011;62824;52.994;-3.936;2023-01-08T01:22:54;10.15;;;1.50;;
74383;SDS011;62824;52.994;-3.936;2023-01-08T01:25:22;8.65;;;2.25;;
74383;SDS011;62824;52.994;-3.936;2023-01-08T01:27:51;12.00;;;1.60;;
74383;SDS011;62824;52.994;-3.936;2023-01-08T01:30:17;11.77;;;2.47;;
74383;SDS011;62824;52.994;-3.936;2023-01-08T01:32:43;8.85;;;2.13;;
74383;SDS011;62824;52.994;-3.936;2023-01-08T01:35:08;8.25;;;1.80;;
74383;SDS011;62824;52.994;-3.936;2023-01-08T01:37:46;7.00;;;1.98;;
74383;SDS011;62824;52.994;-3.936;2023-01-08T01:40:27;10.88;;;1.88;;
74383;SDS011;62824;52.994;-3.936;2023-01-08T01:42:56;12.10;;;2.35;;
74383;SDS011;62824;52.994;-3.936;2023-01-08T01:45:23;9.98;;;1.63;;
74383;SDS011;62824;52.994;-3.936;2023-01-08T01:47:56;12.73;;;2.22;;
74383;SDS011;62824;52.994;-3.936;2023-01-08T01:50:27;8.50;;;1.92;;
74383;SDS011;62824;52.994;-3.936;2023-01-08T01:53:05;4.35;;;1.05;;
74383;SDS011;62824;52.994;-3.936;2023-01-08T01:55:41;3.83;;;1.40;;
74383;SDS011;62824;52.994;-3.936;2023-01-08T02:02:00;6.93;;;1.20;;
74383;SDS011;62824;52.994;-3.936;2023-01-08T02:04:26;9.30;;;2.38;;
74383;SDS011;62824;52.994;-3.936;2023-01-08T02:07:27;10.20;;;2.10;;
74383;SDS011;62824;52.994;-3.936;2023-01-08T02:10:09;15.90;;;2.70;;
74383;SDS011;62824;52.994;-3.936;2023-01-08T02:12:51;15.40;;;2.55;;
74383;SDS011;62824;52.994;-3.936;2023-01-08T02:18:46;7.67;;;2.00;;
74383;SDS011;62824;52.994;-3.936;2023-01-08T02:21:32;11.60;;;2.03;;
74383;SDS011;62824;52.994;-3.936;2023-01-08T02:27:46;11.13;;;2.85;;
74383;SDS011;62824;52.994;-3.936;2023-01-08T02:30:15;13.15;;;2.53;;
74383;SDS011;62824;52.994;-3.936;2023-01-08T02:32:58;15.85;;;2.30;;
74383;SDS011;62824;52.994;-3.936;2023-01-08T02:35:37;15.77;;;2.58;;
74383;SDS011;62824;52.994;-3.936;2023-01-08T02:38:08;11.35;;;2.40;;
74383;SDS011;62824;52.994;-3.936;2023-01-08T02:40:41;11.60;;;2.25;;
74383;SDS011;62824;52.994;-3.936;2023-01-08T02:46:06;14.65;;;2.60;;
74383;SDS011;62824;52.994;-3.936;2023-01-08T02:48:52;20.05;;;2.53;;
74383;SDS011;62824;52.994;-3.936;2023-01-08T02:51:33;15.02;;;2.50;;
74383;SDS011;62824;52.994;-3.936;2023-01-08T02:54:06;13.65;;;1.98;;
74383;SDS011;62824;52.994;-3.936;2023-01-08T02:56:39;9.57;;;2.10;;
74383;SDS011;62824;52.994;-3.936;2023-01-08T02:59:11;12.07;;;2.03;;
74383;SDS011;62824;52.994;-3.936;2023-01-08T03:01:39;10.45;;;2.03;;
74383;SDS011;62824;52.994;-3.936;2023-01-08T03:04:08;7.72;;;1.35;;
74383;SDS011;62824;52.994;-3.936;2023-01-08T03:06:43;14.73;;;2.20;;
74383;SDS011;62824;52.994;-3.936;2023-01-08T03:09:10;9.52;;;1.27;;
74383;SDS011;62824;52.994;-3.936;2023-01-08T03:11:56;7.53;;;1.15;;
74383;SDS011;62824;52.994;-3.936;2023-01-08T03:19:49;5.90;;;1.08;;
74383;SDS011;62824;52.994;-3.936;2023-01-08T03:22:19;4.60;;;1.58;;
74383;SDS011;62824;52.994;-3.936;2023-01-08T03:24:48;4.68;;;1.25;;
74383;SDS011;62824;52.994;-3.936;2023-01-08T03:27:17;5.05;;;1.90;;
74383;SDS011;62824;52.994;-3.936;2023-01-08T03:29:48;6.03;;;1.23;;
74383;SDS011;62824;52.994;-3.936;2023-01-08T03:32:16;7.13;;;1.75;;
74383;SDS011;62824;52.994;-3.936;2023-01-08T03:34:44;8.45;;;1.20;;
74383;SDS011;62824;52.994;-3.936;2023-01-08T03:37:13;8.45;;;1.55;;
74383;SDS011;62824;52.994;-3.936;2023-01-08T03:42:31;6.15;;;1.30;;
74383;SDS011;62824;52.994;-3.936;2023-01-08T03:44:58;6.78;;;1.38;;
74383;SDS011;62824;52.994;-3.936;2023-01-08T03:47:25;6.88;;;1.88;;
74383;SDS011;62824;52.994;-3.936;2023-01-08T03:49:54;7.05;;;1.65;;
74383;SDS011;62824;52.994;-3.936;2023-01-08T03:52:25;8.90;;;1.38;;
74383;SDS011;62824;52.994;-3.936;2023-01-08T03:54:55;10.30;;;1.98;;
74383;SDS011;62824;52.994;-3.936;2023-01-08T03:57:21;9.82;;;1.55;;
74383;SDS011;62824;52.994;-3.936;2023-01-08T03:59:47;8.57;;;1.73;;
74383;SDS011;62824;52.994;-3.936;2023-01-08T04:02:13;7.78;;;1.35;;
74383;SDS011;62824;52.994;-3.936;2023-01-08T04:04:39;9.77;;;1.63;;
74383;SDS011;62824;52.994;-3.936;2023-01-08T04:07:05;8.68;;;2.50;;
74383;SDS011;62824;52.994;-3.936;2023-01-08T04:09:30;11.27;;;1.48;;
74383;SDS011;62824;52.994;-3.936;2023-01-08T04:11:56;8.60;;;1.92;;
74383;SDS011;62824;52.994;-3.936;2023-01-08T04:14:22;11.30;;;1.90;;
74383;SDS011;62824;52.994;-3.936;2023-01-08T04:16:48;8.20;;;2.03;;
74383;SDS011;62824;52.994;-3.936;2023-01-08T04:19:14;8.63;;;2.30;;
74383;SDS011;62824;52.994;-3.936;2023-01-08T04:25:13;12.25;;;3.25;;
74383;SDS011;62824;52.994;-3.936;2023-01-08T04:27:39;12.32;;;3.72;;
74383;SDS011;62824;52.994;-3.936;2023-01-08T04:30:05;9.55;;;2.40;;
74383;SDS011;62824;52.994;-3.936;2023-01-08T04:32:31;12.52;;;2.70;;
74383;SDS011;62824;52.994;-3.936;2023-01-08T04:34:57;16.75;;;3.15;;
74383;SDS011;62824;52.994;-3.936;2023-01-08T04:37:23;11.43;;;2.67;;
74383;SDS011;62824;52.994;-3.936;2023-01-08T04:39:48;19.85;;;3.67;;
74383;SDS011;62824;52.994;-3.936;2023-01-08T04:42:14;20.83;;;3.65;;
74383;SDS011;62824;52.994;-3.936;2023-01-08T04:44:40;13.68;;;2.60;;
74383;SDS011;62824;52.994;-3.936;2023-01-08T04:47:06;14.13;;;2.70;;
74383;SDS011;62824;52.994;-3.936;2023-01-08T04:49:31;20.15;;;3.25;;
74383;SDS011;62824;52.994;-3.936;2023-01-08T04:51:57;15.52;;;3.10;;
74383;SDS011;62824;52.994;-3.936;2023-01-08T04:54:23;22.80;;;3.83;;
74383;SDS011;62824;52.994;-3.936;2023-01-08T04:56:49;13.75;;;2.97;;
74383;SDS011;62824;52.994;-3.936;2023-01-08T04:59:15;21.70;;;3.50;;
74383;SDS011;62824;52.994;-3.936;2023-01-08T05:01:41;21.75;;;3.65;;
74383;SDS011;62824;52.994;-3.936;2023-01-08T05:04:09;13.00;;;3.22;;
74383;SDS011;62824;52.994;-3.936;2023-01-08T05:06:35;13.40;;;3.20;;
74383;SDS011;62824;52.994;-3.936;2023-01-08T05:09:01;11.95;;;2.92;;
74383;SDS011;62824;52.994;-3.936;2023-01-08T05:11:27;18.92;;;2.55;;
74383;SDS011;62824;52.994;-3.936;2023-01-08T05:13:53;15.35;;;3.13;;
74383;SDS011;62824;52.994;-3.936;2023-01-08T05:16:20;15.48;;;2.97;;
74383;SDS011;62824;52.994;-3.936;2023-01-08T05:18:46;13.25;;;2.95;;
74383;SDS011;62824;52.994;-3.936;2023-01-08T05:21:12;19.73;;;3.38;;
74383;SDS011;62824;52.994;-3.936;2023-01-08T05:23:38;25.23;;;3.70;;
74383;SDS011;62824;52.994;-3.936;2023-01-08T05:26:05;15.43;;;4.43;;
74383;SDS011;62824;52.994;-3.936;2023-01-08T05:28:31;17.85;;;3.30;;
74383;SDS011;62824;52.994;-3.936;2023-01-08T05:30:57;21.65;;;3.90;;
74383;SDS011;62824;52.994;-3.936;2023-01-08T05:33:23;23.08;;;3.75;;
74383;SDS011;62824;52.994;-3.936;2023-01-08T05:35:50;22.27;;;3.45;;
74383;SDS011;62824;52.994;-3.936;2023-01-08T05:38:16;17.65;;;3.40;;
74383;SDS011;62824;52.994;-3.936;2023-01-08T05:44:04;19.13;;;2.97;;
74383;SDS011;62824;52.994;-3.936;2023-01-08T05:46:29;18.35;;;2.83;;
74383;SDS011;62824;52.994;-3.936;2023-01-08T05:48:56;15.45;;;2.50;;
74383;SDS011;62824;52.994;-3.936;2023-01-08T05:51:22;16.40;;;3.05;;
74383;SDS011;62824;52.994;-3.936;2023-01-08T05:53:47;9.77;;;2.55;;
74383;SDS011;62824;52.994;-3.936;2023-01-08T05:56:13;12.43;;;1.75;;
74383;SDS011;62824;52.994;-3.936;2023-01-08T05:58:39;9.77;;;2.00;;
74383;SDS011;62824;52.994;-3.936;2023-01-08T06:01:09;6.18;;;1.30;;
74383;SDS011;62824;52.994;-3.936;2023-01-08T06:03:36;15.02;;;2.35;;
74383;SDS011;62824;52.994;-3.936;2023-01-08T06:06:03;8.48;;;1.58;;
74383;SDS011;62824;52.994;-3.936;2023-01-08T06:08:30;9.90;;;1.77;;
74383;SDS011;62824;52.994;-3.936;2023-01-08T06:11:04;7.45;;;1.38;;
74383;SDS011;62824;52.994;-3.936;2023-01-08T06:13:32;5.35;;;1.33;;
74383;SDS011;62824;52.994;-3.936;2023-01-08T06:15:59;6.38;;;1.80;;
74383;SDS011;62824;52.994;-3.936;2023-01-08T06:18:25;8.23;;;1.58;;
74383;SDS011;62824;52.994;-3.936;2023-01-08T06:20:52;5.22;;;1.10;;
74383;SDS011;62824;52.994;-3.936;2023-01-08T06:23:17;4.93;;;1.33;;
74383;SDS011;62824;52.994;-3.936;2023-01-08T06:25:43;10.57;;;1.30;;
74383;SDS011;62824;52.994;-3.936;2023-01-08T06:28:09;8.18;;;1.13;;
74383;SDS011;62824;52.994;-3.936;2023-01-08T06:30:35;9.23;;;1.40;;
74383;SDS011;62824;52.994;-3.936;2023-01-08T06:33:01;7.50;;;1.30;;
74383;SDS011;62824;52.994;-3.936;2023-01-08T06:35:27;6.32;;;1.23;;
74383;SDS011;62824;52.994;-3.936;2023-01-08T06:37:55;4.38;;;1.10;;
74383;SDS011;62824;52.994;-3.936;2023-01-08T06:40:22;5.43;;;1.15;;
74383;SDS011;62824;52.994;-3.936;2023-01-08T06:42:48;4.60;;;1.23;;
74383;SDS011;62824;52.994;-3.936;2023-01-08T06:45:14;8.23;;;1.48;;
74383;SDS011;62824;52.994;-3.936;2023-01-08T06:47:39;11.27;;;2.05;;
74383;SDS011;62824;52.994;-3.936;2023-01-08T06:50:06;9.40;;;1.77;;
74383;SDS011;62824;52.994;-3.936;2023-01-08T06:52:32;9.02;;;1.63;;
74383;SDS011;62824;52.994;-3.936;2023-01-08T06:54:58;4.20;;;1.30;;
74383;SDS011;62824;52.994;-3.936;2023-01-08T06:57:24;6.55;;;1.70;;
74383;SDS011;62824;52.994;-3.936;2023-01-08T06:59:50;7.70;;;1.90;;
74383;SDS011;62824;52.994;-3.936;2023-01-08T07:02:16;15.07;;;1.80;;
74383;SDS011;62824;52.994;-3.936;2023-01-08T07:04:42;10.23;;;1.60;;
74383;SDS011;62824;52.994;-3.936;2023-01-08T07:07:12;10.10;;;2.03;;
74383;SDS011;62824;52.994;-3.936;2023-01-08T07:09:39;12.73;;;2.65;;
74383;SDS011;62824;52.994;-3.936;2023-01-08T07:12:09;8.25;;;1.80;;
74383;SDS011;62824;52.994;-3.936;2023-01-08T07:14:36;8.80;;;1.45;;
74383;SDS011;62824;52.994;-3.936;2023-01-08T07:20:43;8.77;;;1.23;;
74383;SDS011;62824;52.994;-3.936;2023-01-08T07:23:09;8.90;;;1.25;;
74383;SDS011;62824;52.994;-3.936;2023-01-08T07:25:36;8.02;;;1.60;;
74383;SDS011;62824;52.994;-3.936;2023-01-08T07:28:01;7.40;;;1.20;;
74383;SDS011;62824;52.994;-3.936;2023-01-08T07:30:27;3.65;;;1.10;;
74383;SDS011;62824;52.994;-3.936;2023-01-08T07:32:56;7.35;;;1.30;;
74383;SDS011;62824;52.994;-3.936;2023-01-08T07:35:23;7.25;;;1.52;;
74383;SDS011;62824;52.994;-3.936;2023-01-08T07:37:49;7.10;;;1.20;;
74383;SDS011;62824;52.994;-3.936;2023-01-08T07:40:15;7.32;;;1.00;;
74383;SDS011;62824;52.994;-3.936;2023-01-08T07:42:41;5.25;;;1.08;;
74383;SDS011;62824;52.994;-3.936;2023-01-08T07:45:06;3.47;;;0.88;;
74383;SDS011;62824;52.994;-3.936;2023-01-08T07:47:32;5.85;;;1.33;;
74383;SDS011;62824;52.994;-3.936;2023-01-08T07:49:58;8.32;;;1.25;;
74383;SDS011;62824;52.994;-3.936;2023-01-08T07:52:24;6.43;;;1.27;;
74383;SDS011;62824;52.994;-3.936;2023-01-08T07:54:50;8.18;;;1.33;;
74383;SDS011;62824;52.994;-3.936;2023-01-08T07:57:15;8.93;;;1.20;;
74383;SDS011;62824;52.994;-3.936;2023-01-08T07:59:41;8.68;;;1.50;;
74383;SDS011;62824;52.994;-3.936;2023-01-08T08:02:09;8.27;;;1.40;;
74383;SDS011;62824;52.994;-3.936;2023-01-08T08:04:35;6.05;;;1.35;;
74383;SDS011;62824;52.994;-3.936;2023-01-08T08:07:04;5.30;;;1.25;;
74383;SDS011;62824;52.994;-3.936;2023-01-08T08:09:32;8.43;;;1.50;;
74383;SDS011;62824;52.994;-3.936;2023-01-08T08:12:18;8.88;;;1.38;;
74383;SDS011;62824;52.994;-3.936;2023-01-08T08:14:47;4.05;;;1.00;;
74383;SDS011;62824;52.994;-3.936;2023-01-08T08:17:18;2.88;;;0.98;;
74383;SDS011;62824;52.994;-3.936;2023-01-08T08:19:44;5.28;;;1.33;;
74383;SDS011;62824;52.994;-3.936;2023-01-08T08:22:11;9.00;;;1.52;;
74383;SDS011;62824;52.994;-3.936;2023-01-08T08:24:37;9.20;;;1.17;;
74383;SDS011;62824;52.994;-3.936;2023-01-08T08:27:03;5.47;;;1.17;;
74383;SDS011;62824;52.994;-3.936;2023-01-08T08:33:05;5.90;;;1.48;;
74383;SDS011;62824;52.994;-3.936;2023-01-08T08:35:31;8.25;;;1.77;;
74383;SDS011;62824;52.994;-3.936;2023-01-08T08:37:58;4.90;;;1.25;;
74383;SDS011;62824;52.994;-3.936;2023-01-08T08:40:24;6.00;;;1.13;;
74383;SDS011;62824;52.994;-3.936;2023-01-08T08:42:54;8.30;;;1.52;;
74383;SDS011;62824;52.994;-3.936;2023-01-08T08:45:21;5.53;;;1.27;;
74383;SDS011;62824;52.994;-3.936;2023-01-08T08:47:47;2.65;;;1.10;;
74383;SDS011;62824;52.994;-3.936;2023-01-08T08:50:12;10.30;;;1.60;;
74383;SDS011;62824;52.994;-3.936;2023-01-08T08:52:38;10.25;;;1.40;;
74383;SDS011;62824;52.994;-3.936;2023-01-08T08:55:04;2.25;;;1.00;;
74383;SDS011;62824;52.994;-3.936;2023-01-08T08:57:31;12.07;;;1.63;;
74383;SDS011;62824;52.994;-3.936;2023-01-08T08:59:56;6.00;;;1.55;;
74383;SDS011;62824;52.994;-3.936;2023-01-08T09:02:22;6.72;;;1.45;;
74383;SDS011;62824;52.994;-3.936;2023-01-08T09:04:48;4.97;;;1.20;;
74383;SDS011;62824;52.994;-3.936;2023-01-08T09:07:14;5.25;;;1.75;;
74383;SDS011;62824;52.994;-3.936;2023-01-08T09:09:39;8.70;;;1.30;;
74383;SDS011;62824;52.994;-3.936;2023-01-08T09:12:05;5.85;;;1.15;;
74383;SDS011;62824;52.994;-3.936;2023-01-08T09:14:31;7.85;;;1.48;;
74383;SDS011;62824;52.994;-3.936;2023-01-08T09:16:57;7.22;;;1.80;;
74383;SDS011;62824;52.994;-3.936;2023-01-08T09:19:23;5.88;;;1.33;;
74383;SDS011;62824;52.994;-3.936;2023-01-08T09:21:48;4.65;;;1.40;;
74383;SDS011;62824;52.994;-3.936;2023-01-08T09:24:15;9.77;;;1.30;;
74383;SDS011;62824;52.994;-3.936;2023-01-08T09:26:40;4.85;;;1.10;;
74383;SDS011;62824;52.994;-3.936;2023-01-08T09:32:41;7.07;;;1.48;;
74383;SDS011;62824;52.994;-3.936;2023-01-08T09:35:07;4.18;;;1.30;;
74383;SDS011;62824;52.994;-3.936;2023-01-08T09:37:33;0.45;;;0.30;;
74383;SDS011;62824;52.994;-3.936;2023-01-08T09:39:59;1.55;;;0.90;;
74383;SDS011;62824;52.994;-3.936;2023-01-08T09:42:25;2.00;;;0.55;;
74383;SDS011;62824;52.994;-3.936;2023-01-08T09:44:52;1.67;;;0.40;;
74383;SDS011;62824;52.994;-3.936;2023-01-08T09:47:23;0.80;;;0.30;;
74383;SDS011;62824;52.994;-3.936;2023-01-08T09:49:54;1.60;;;0.30;;
74383;SDS011;62824;52.994;-3.936;2023-01-08T09:54:53;4.80;;;0.70;;
74383;SDS011;62824;52.994;-3.936;2023-01-08T09:57:19;2.38;;;0.60;;
74383;SDS011;62824;52.994;-3.936;2023-01-08T09:59:46;4.15;;;0.63;;
74383;SDS011;62824;52.994;-3.936;2023-01-08T10:02:16;1.08;;;0.40;;
74383;SDS011;62824;52.994;-3.936;2023-01-08T10:04:44;1.52;;;0.55;;
74383;SDS011;62824;52.994;-3.936;2023-01-08T10:07:19;1.25;;;0.60;;
74383;SDS011;62824;52.994;-3.936;2023-01-08T10:09:50;1.45;;;0.30;;
74383;SDS011;62824;52.994;-3.936;2023-01-08T10:12:21;3.20;;;0.70;;
74383;SDS011;62824;52.994;-3.936;2023-01-08T10:14:53;3.17;;;0.80;;
74383;SDS011;62824;52.994;-3.936;2023-01-08T10:17:24;2.70;;;0.80;;
74383;SDS011;62824;52.994;-3.936;2023-01-08T10:19:59;3.55;;;0.80;;
74383;SDS011;62824;52.994;-3.936;2023-01-08T10:22:27;3.85;;;0.73;;
74383;SDS011;62824;52.994;-3.936;2023-01-08T10:27:56;0.80;;;0.43;;
74383;SDS011;62824;52.994;-3.936;2023-01-08T10:32:55;1.77;;;0.60;;
74383;SDS011;62824;52.994;-3.936;2023-01-08T10:35:33;1.75;;;0.60;;
74383;SDS011;62824;52.994;-3.936;2023-01-08T10:38:02;3.58;;;1.63;;
74383;SDS011;62824;52.994;-3.936;2023-01-08T10:43:07;2.03;;;0.60;;
74383;SDS011;62824;52.994;-3.936;2023-01-08T10:45:38;4.40;;;1.00;;
74383;SDS011;62824;52.994;-3.936;2023-01-08T10:48:06;4.40;;;1.05;;
74383;SDS011;62824;52.994;-3.936;2023-01-08T10:50:41;1.88;;;1.00;;
74383;SDS011;62824;52.994;-3.936;2023-01-08T10:53:20;4.55;;;1.10;;
74383;SDS011;62824;52.994;-3.936;2023-01-08T10:55:59;3.08;;;1.80;;
74383;SDS011;62824;52.994;-3.936;2023-01-08T10:58:27;4.38;;;2.05;;
74383;SDS011;62824;52.994;-3.936;2023-01-08T11:03:48;5.78;;;2.47;;
74383;SDS011;62824;52.994;-3.936;2023-01-08T11:06:20;4.65;;;1.83;;
74383;SDS011;62824;52.994;-3.936;2023-01-08T11:08:59;4.97;;;2.03;;
74383;SDS011;62824;52.994;-3.936;2023-01-08T11:11:36;11.45;;;3.90;;
74383;SDS011;62824;52.994;-3.936;2023-01-08T11:14:05;8.65;;;1.95;;
74383;SDS011;62824;52.994;-3.936;2023-01-08T11:16:43;5.43;;;1.90;;
74383;SDS011;62824;52.994;-3.936;2023-01-08T11:19:15;8.95;;;3.78;;
74383;SDS011;62824;52.994;-3.936;2023-01-08T11:21:53;11.55;;;4.03;;
74383;SDS011;62824;52.994;-3.936;2023-01-08T11:24:44;10.57;;;2.65;;
74383;SDS011;62824;52.994;-3.936;2023-01-08T11:29:47;3.08;;;0.82;;
74383;SDS011;62824;52.994;-3.936;2023-01-08T11:35:23;3.08;;;1.38;;
74383;SDS011;62824;52.994;-3.936;2023-01-08T11:37:51;3.05;;;1.25;;
74383;SDS011;62824;52.994;-3.936;2023-01-08T11:49:07;4.05;;;1.45;;
74383;SDS011;62824;52.994;-3.936;2023-01-08T11:57:25;2.95;;;1.10;;
74383;SDS011;62824;52.994;-3.936;2023-01-08T12:03:01;2.38;;;0.80;;
74383;SDS011;62824;52.994;-3.936;2023-01-08T12:08:02;3.40;;;0.60;;
74383;SDS011;62824;52.994;-3.936;2023-01-08T12:19:55;5.22;;;0.80;;
74383;SDS011;62824;52.994;-3.936;2023-01-08T12:22:41;3.80;;;0.65;;
74383;SDS011;62824;52.994;-3.936;2023-01-08T12:33:57;4.25;;;0.82;;
74383;SDS011;62824;52.994;-3.936;2023-01-08T12:36:48;9.40;;;1.17;;
74383;SDS011;62824;52.994;-3.936;2023-01-08T12:42:02;2.72;;;0.95;;
74383;SDS011;62824;52.994;-3.936;2023-01-08T12:44:35;2.88;;;0.90;;
74383;SDS011;62824;52.994;-3.936;2023-01-08T12:47:02;10.60;;;1.70;;
74383;SDS011;62824;52.994;-3.936;2023-01-08T12:49:33;6.95;;;0.80;;
74383;SDS011;62824;52.994;-3.936;2023-01-08T12:52:06;3.75;;;1.00;;
74383;SDS011;62824;52.994;-3.936;2023-01-08T12:54:46;2.47;;;0.80;;
74383;SDS011;62824;52.994;-3.936;2023-01-08T12:57:15;7.53;;;1.48;;
74383;SDS011;62824;52.994;-3.936;2023-01-08T12:59:54;5.97;;;1.20;;
74383;SDS011;62824;52.994;-3.936;2023-01-08T13:07:56;5.47;;;1.20;;
74383;SDS011;62824;52.994;-3.936;2023-01-08T13:12:53;3.80;;;1.10;;
74383;SDS011;62824;52.994;-3.936;2023-01-08T13:15:23;4.80;;;1.00;;
74383;SDS011;62824;52.994;-3.936;2023-01-08T13:17:54;3.10;;;1.10;;
74383;SDS011;62824;52.994;-3.936;2023-01-08T13:20:26;6.13;;;1.83;;
74383;SDS011;62824;52.994;-3.936;2023-01-08T13:22:55;6.35;;;1.45;;
74383;SDS011;62824;52.994;-3.936;2023-01-08T13:27:49;5.90;;;1.27;;
74383;SDS011;62824;52.994;-3.936;2023-01-08T13:41:35;6.47;;;1.88;;
74383;SDS011;62824;52.994;-3.936;2023-01-08T13:44:11;3.60;;;0.95;;
74383;SDS011;62824;52.994;-3.936;2023-01-08T13:46:51;2.92;;;1.70;;
74383;SDS011;62824;52.994;-3.936;2023-01-08T13:49:35;8.30;;;1.10;;
74383;SDS011;62824;52.994;-3.936;2023-01-08T13:55:13;3.88;;;1.20;;
74383;SDS011;62824;52.994;-3.936;2023-01-08T13:57:43;4.82;;;1.60;;
74383;SDS011;62824;52.994;-3.936;2023-01-08T14:00:21;4.80;;;1.17;;
74383;SDS011;62824;52.994;-3.936;2023-01-08T14:02:49;7.78;;;1.50;;
74383;SDS011;62824;52.994;-3.936;2023-01-08T14:05:23;5.88;;;1.40;;
74383;SDS011;62824;52.994;-3.936;2023-01-08T14:07:55;5.88;;;1.23;;
74383;SDS011;62824;52.994;-3.936;2023-01-08T14:10:23;5.90;;;1.20;;
74383;SDS011;62824;52.994;-3.936;2023-01-08T14:12:50;3.22;;;0.90;;
74383;SDS011;62824;52.994;-3.936;2023-01-08T14:15:21;3.60;;;1.02;;
74383;SDS011;62824;52.994;-3.936;2023-01-08T14:20:58;6.32;;;1.58;;
74383;SDS011;62824;52.994;-3.936;2023-01-08T14:23:27;4.63;;;1.77;;
74383;SDS011;62824;52.994;-3.936;2023-01-08T14:26:00;4.32;;;1.63;;
74383;SDS011;62824;52.994;-3.936;2023-01-08T14:28:29;3.78;;;1.20;;
74383;SDS011;62824;52.994;-3.936;2023-01-08T14:30:55;4.15;;;1.13;;
74383;SDS011;62824;52.994;-3.936;2023-01-08T14:33:34;5.07;;;1.50;;
74383;SDS011;62824;52.994;-3.936;2023-01-08T14:36:02;4.63;;;1.70;;
74383;SDS011;62824;52.994;-3.936;2023-01-08T14:38:31;5.93;;;1.15;;
74383;SDS011;62824;52.994;-3.936;2023-01-08T14:41:22;3.33;;;1.17;;
74383;SDS011;62824;52.994;-3.936;2023-01-08T14:43:49;5.30;;;1.48;;
74383;SDS011;62824;52.994;-3.936;2023-01-08T14:46:23;6.65;;;1.20;;
74383;SDS011;62824;52.994;-3.936;2023-01-08T14:48:51;6.10;;;1.65;;
74383;SDS011;62824;52.994;-3.936;2023-01-08T14:51:22;8.48;;;2.28;;
74383;SDS011;62824;52.994;-3.936;2023-01-08T14:53:51;8.48;;;1.50;;
74383;SDS011;62824;52.994;-3.936;2023-01-08T14:58:54;8.70;;;2.35;;
74383;SDS011;62824;52.994;-3.936;2023-01-08T15:01:22;11.13;;;2.40;;
74383;SDS011;62824;52.994;-3.936;2023-01-08T15:07:19;9.38;;;2.20;;
74383;SDS011;62824;52.994;-3.936;2023-01-08T15:09:58;6.65;;;2.10;;
74383;SDS011;62824;52.994;-3.936;2023-01-08T15:12:27;11.43;;;2.42;;
74383;SDS011;62824;52.994;-3.936;2023-01-08T15:15:07;8.27;;;2.78;;
74383;SDS011;62824;52.994;-3.936;2023-01-08T15:17:36;8.32;;;1.73;;
74383;SDS011;62824;52.994;-3.936;2023-01-08T15:20:04;7.68;;;1.88;;
74383;SDS011;62824;52.994;-3.936;2023-01-08T15:22:31;12.23;;;3.05;;
74383;SDS011;62824;52.994;-3.936;2023-01-08T15:24:58;9.93;;;2.22;;
74383;SDS011;62824;52.994;-3.936;2023-01-08T15:27:25;7.47;;;2.20;;
74383;SDS011;62824;52.994;-3.936;2023-01-08T15:29:52;6.75;;;1.90;;
74383;SDS011;62824;52.994;-3.936;2023-01-08T15:32:31;6.75;;;1.35;;
74383;SDS011;62824;52.994;-3.936;2023-01-08T15:35:01;5.40;;;2.03;;
74383;SDS011;62824;52.994;-3.936;2023-01-08T15:37:40;6.18;;;1.88;;
74383;SDS011;62824;52.994;-3.936;2023-01-08T15:40:07;10.52;;;1.75;;
74383;SDS011;62824;52.994;-3.936;2023-01-08T15:42:35;8.70;;;1.95;;
74383;SDS011;62824;52.994;-3.936;2023-01-08T15:45:21;8.43;;;2.42;;
74383;SDS011;62824;52.994;-3.936;2023-01-08T15:47:55;4.82;;;1.50;;
74383;SDS011;62824;52.994;-3.936;2023-01-08T15:50:22;6.97;;;2.53;;
74383;SDS011;62824;52.994;-3.936;2023-01-08T15:56:18;6.35;;;1.90;;
74383;SDS011;62824;52.994;-3.936;2023-01-08T15:58:50;7.30;;;1.90;;
74383;SDS011;62824;52.994;-3.936;2023-01-08T16:01:17;7.80;;;1.90;;
74383;SDS011;62824;52.994;-3.936;2023-01-08T16:03:43;9.63;;;2.10;;
74383;SDS011;62824;52.994;-3.936;2023-01-08T16:06:09;7.05;;;2.10;;
74383;SDS011;62824;52.994;-3.936;2023-01-08T16:08:35;11.05;;;2.67;;
74383;SDS011;62824;52.994;-3.936;2023-01-08T16:11:01;8.02;;;2.38;;
74383;SDS011;62824;52.994;-3.936;2023-01-08T16:13:27;10.18;;;2.40;;
74383;SDS011;62824;52.994;-3.936;2023-01-08T16:15:52;9.45;;;2.75;;
74383;SDS011;62824;52.994;-3.936;2023-01-08T16:18:19;13.68;;;2.58;;
74383;SDS011;62824;52.994;-3.936;2023-01-08T16:20:45;13.02;;;2.30;;
74383;SDS011;62824;52.994;-3.936;2023-01-08T16:23:11;8.93;;;2.28;;
74383;SDS011;62824;52.994;-3.936;2023-01-08T16:25:37;7.03;;;2.28;;
74383;SDS011;62824;52.994;-3.936;2023-01-08T16:28:03;9.38;;;2.63;;
74383;SDS011;62824;52.994;-3.936;2023-01-08T16:30:29;9.45;;;2.38;;
74383;SDS011;62824;52.994;-3.936;2023-01-08T16:32:55;10.60;;;2.53;;
74383;SDS011;62824;52.994;-3.936;2023-01-08T16:35:21;12.18;;;3.50;;
74383;SDS011;62824;52.994;-3.936;2023-01-08T16:37:47;9.60;;;2.50;;
74383;SDS011;62824;52.994;-3.936;2023-01-08T16:40:13;10.07;;;2.50;;
74383;SDS011;62824;52.994;-3.936;2023-01-08T16:42:39;12.88;;;2.72;;
74383;SDS011;62824;52.994;-3.936;2023-01-08T16:45:05;7.75;;;2.42;;
74383;SDS011;62824;52.994;-3.936;2023-01-08T16:47:36;11.10;;;2.80;;
74383;SDS011;62824;52.994;-3.936;2023-01-08T16:50:02;13.00;;;3.10;;
74383;SDS011;62824;52.994;-3.936;2023-01-08T16:52:28;15.68;;;2.70;;
74383;SDS011;62824;52.994;-3.936;2023-01-08T16:54:54;10.55;;;2.60;;
74383;SDS011;62824;52.994;-3.936;2023-01-08T16:57:19;14.30;;;3.25;;
74383;SDS011;62824;52.994;-3.936;2023-01-08T16:59:45;9.45;;;2.53;;
74383;SDS011;62824;52.994;-3.936;2023-01-08T17:02:11;8.30;;;1.92;;